createdAt,value
2023-03-30T00:01:22.693Z,96758.22
2023-03-30T00:03:51.878Z,96752.78
2023-03-30T00:06:23.001Z,96744.28
2023-03-30T00:08:57.431Z,96744.06
2023-03-30T00:11:28.352Z,96737.03
2023-03-30T00:13:57.170Z,96724.69
2023-03-30T00:16:27.668Z,96728.34
2023-03-30T00:18:56.162Z,96733.00
2023-03-30T00:21:25.004Z,96720.00
2023-03-30T00:23:53.689Z,96719.06
2023-03-30T00:26:22.558Z,96720.66
2023-03-30T00:28:52.452Z,96718.56
2023-03-30T00:31:21.310Z,96720.47
2023-03-30T00:33:52.330Z,96721.44
2023-03-30T00:36:22.511Z,96718.69
2023-03-30T00:38:51.079Z,96708.28
2023-03-30T00:41:19.897Z,96707.47
2023-03-30T00:44:00.141Z,96711.63
2023-03-30T00:46:29.699Z,96704.91
2023-03-30T00:49:05.520Z,96702.88
2023-03-30T00:51:39.377Z,96712.47
2023-03-30T00:54:14.514Z,96699.47
2023-03-30T00:56:43.249Z,96690.66
2023-03-30T00:59:12.366Z,96697.53
2023-03-30T01:01:42.480Z,96698.63
2023-03-30T01:04:15.156Z,96698.47
2023-03-30T01:06:46.508Z,96698.78
2023-03-30T01:09:17.162Z,96698.16
2023-03-30T01:11:46.856Z,96690.66
2023-03-30T01:14:18.250Z,96687.75
2023-03-30T01:16:58.018Z,96688.56
2023-03-30T01:20:20.515Z,96683.91
2023-03-30T01:23:33.831Z,96669.34
2023-03-30T01:26:48.685Z,96671.91
2023-03-30T01:29:39.965Z,96668.22
2023-03-30T01:32:51.003Z,96670.81
2023-03-30T01:36:08.920Z,96671.28
2023-03-30T01:39:23.723Z,96661.22
2023-03-30T01:42:02.734Z,96671.34
2023-03-30T01:44:37.971Z,96667.97
2023-03-30T01:47:16.338Z,96673.91
2023-03-30T01:49:57.462Z,96667.97
2023-03-30T01:52:37.042Z,96673.88
2023-03-30T01:55:16.741Z,96677.06
2023-03-30T01:57:54.440Z,96687.63
2023-03-30T02:00:27.765Z,96687.28
2023-03-30T02:03:02.772Z,96691.28
2023-03-30T02:05:34.327Z,96683.22
2023-03-30T02:08:10.283Z,96688.31
2023-03-30T02:10:43.777Z,96677.44
2023-03-30T02:13:14.206Z,96675.16
2023-03-30T02:15:51.107Z,96666.69
2023-03-30T02:18:21.582Z,96666.03
2023-03-30T02:20:50.709Z,96667.78
2023-03-30T02:23:23.698Z,96679.03
2023-03-30T02:25:53.856Z,96686.78
2023-03-30T02:28:22.501Z,96701.25
2023-03-30T02:30:51.602Z,96689.25
2023-03-30T02:33:29.522Z,96672.31
2023-03-30T02:36:25.550Z,96640.25
2023-03-30T02:39:13.910Z,96622.47
2023-03-30T02:42:33.182Z,96612.84
2023-03-30T02:45:15.383Z,96627.44
2023-03-30T02:47:58.028Z,96622.16
2023-03-30T02:50:34.977Z,96634.19
2023-03-30T02:53:23.690Z,96633.84
2023-03-30T02:56:04.478Z,96619.28
2023-03-30T02:58:57.663Z,96613.16
2023-03-30T03:01:37.041Z,96603.88
2023-03-30T03:04:16.675Z,96604.34
2023-03-30T03:07:02.610Z,96605.66
2023-03-30T03:09:59.604Z,96609.63
2023-03-30T03:12:29.879Z,96597.31
2023-03-30T03:15:01.988Z,96593.44
2023-03-30T03:17:34.947Z,96598.06
2023-03-30T03:20:10.708Z,96604.00
2023-03-30T03:22:39.498Z,96611.38
2023-03-30T03:25:08.871Z,96619.38
2023-03-30T03:27:52.543Z,96617.75
2023-03-30T03:30:28.326Z,96611.97
2023-03-30T03:33:11.519Z,96619.50
2023-03-30T03:35:45.852Z,96635.06
2023-03-30T03:38:15.734Z,96636.34
2023-03-30T03:40:44.505Z,96642.13
2023-03-30T03:43:13.259Z,96642.78
2023-03-30T03:45:43.166Z,96638.59
2023-03-30T03:48:12.056Z,96627.06
2023-03-30T03:50:45.932Z,96646.03
2023-03-30T03:53:15.049Z,96659.97
2023-03-30T03:55:44.612Z,96655.31
2023-03-30T03:58:13.135Z,96647.25
2023-03-30T04:00:43.036Z,96642.94
2023-03-30T04:03:12.600Z,96643.56
2023-03-30T04:05:41.947Z,96652.53
2023-03-30T04:08:12.354Z,96647.91
2023-03-30T04:10:43.120Z,96645.66
2023-03-30T04:13:21.707Z,96635.84
2023-03-30T04:16:12.319Z,96626.03
2023-03-30T04:19:00.096Z,96629.72
2023-03-30T04:21:55.541Z,96626.50
2023-03-30T04:24:52.466Z,96625.03
2023-03-30T04:27:53.412Z,96633.81
2023-03-30T04:30:45.917Z,96632.34
2023-03-30T04:33:34.952Z,96630.84
2023-03-30T04:36:27.732Z,96641.75
2023-03-30T04:39:18.352Z,96644.97
2023-03-30T04:42:07.453Z,96640.94
2023-03-30T04:44:51.038Z,96638.50
2023-03-30T04:47:20.121Z,96642.16
2023-03-30T04:49:52.639Z,96645.03
2023-03-30T04:52:41.591Z,96635.22
2023-03-30T04:55:32.120Z,96642.56
2023-03-30T04:58:24.085Z,96639.19
2023-03-30T05:01:13.070Z,96637.44
2023-03-30T05:04:00.127Z,96636.88
2023-03-30T05:06:42.037Z,96644.22
2023-03-30T05:09:13.568Z,96648.88
2023-03-30T05:12:06.472Z,96642.97
2023-03-30T05:14:52.657Z,96648.28
2023-03-30T05:17:46.257Z,96644.34
2023-03-30T05:20:24.039Z,96636.22
2023-03-30T05:23:25.691Z,96631.97
2023-03-30T05:26:20.762Z,96619.69
2023-03-30T05:29:12.398Z,96619.78
2023-03-30T05:31:59.469Z,96609.38
2023-03-30T05:34:44.308Z,96592.03
2023-03-30T05:37:31.326Z,96575.72
2023-03-30T05:40:20.722Z,96589.53
2023-03-30T05:43:19.559Z,96567.09
2023-03-30T05:46:20.100Z,96580.28
2023-03-30T05:49:06.262Z,96583.47
2023-03-30T05:51:52.108Z,96589.06
2023-03-30T05:54:57.768Z,96593.44
2023-03-30T05:57:47.955Z,96595.28
2023-03-30T06:00:52.582Z,96593.63
2023-03-30T06:03:33.327Z,96610.16
2023-03-30T06:06:02.681Z,96618.03
2023-03-30T06:08:33.097Z,96625.28
2023-03-30T06:11:06.923Z,96607.44
2023-03-30T06:13:55.196Z,96604.38
2023-03-30T06:16:25.661Z,96579.44
2023-03-30T06:18:54.580Z,96582.97
2023-03-30T06:21:24.329Z,96587.97
2023-03-30T06:24:10.953Z,96591.81
2023-03-30T06:26:42.481Z,96593.91
2023-03-30T06:29:12.702Z,96591.41
2023-03-30T06:31:43.066Z,96580.88
2023-03-30T06:34:30.564Z,96568.28
2023-03-30T06:36:59.808Z,96566.47
2023-03-30T06:39:29.998Z,96568.53
2023-03-30T06:41:58.548Z,96562.41
2023-03-30T06:44:49.382Z,96553.97
2023-03-30T06:47:19.420Z,96557.22
2023-03-30T06:49:48.790Z,96553.84
2023-03-30T06:52:38.510Z,96542.88
2023-03-30T06:55:08.273Z,96544.47
2023-03-30T06:57:37.458Z,96540.47
2023-03-30T07:00:13.809Z,96534.06
2023-03-30T07:02:43.409Z,96536.91
2023-03-30T07:05:37.903Z,96531.09
2023-03-30T07:08:26.683Z,96525.38
2023-03-30T07:10:57.121Z,96518.84
2023-03-30T07:13:30.098Z,96506.63
2023-03-30T07:16:01.354Z,96516.16
2023-03-30T07:18:32.909Z,96516.88
2023-03-30T07:21:02.108Z,96519.09
2023-03-30T07:23:34.094Z,96507.16
2023-03-30T07:26:03.110Z,96511.59
2023-03-30T07:28:40.485Z,96518.97
2023-03-30T07:31:14.446Z,96510.22
2023-03-30T07:33:44.621Z,96506.47
2023-03-30T07:36:17.535Z,96496.22
2023-03-30T07:38:47.195Z,96505.81
2023-03-30T07:41:17.931Z,96510.06
2023-03-30T07:43:49.783Z,96516.31
2023-03-30T07:46:19.827Z,96519.28
2023-03-30T07:48:52.913Z,96511.75
2023-03-30T07:51:22.280Z,96522.72
2023-03-30T07:54:10.344Z,96524.91
2023-03-30T07:56:53.582Z,96557.66
2023-03-30T07:59:24.912Z,96540.22
2023-03-30T08:01:57.764Z,96526.19
2023-03-30T08:04:47.843Z,96523.91
2023-03-30T08:07:21.865Z,96515.44
2023-03-30T08:09:57.730Z,96520.56
2023-03-30T08:12:26.379Z,96534.50
2023-03-30T08:14:56.038Z,96549.25
2023-03-30T08:17:25.979Z,96557.47
2023-03-30T08:19:56.200Z,96556.78
2023-03-30T08:22:26.463Z,96567.63
2023-03-30T08:24:55.194Z,96555.06
2023-03-30T08:27:24.695Z,96548.91
2023-03-30T08:29:54.275Z,96564.22
2023-03-30T08:32:22.824Z,96568.06
2023-03-30T08:34:54.016Z,96562.25
2023-03-30T08:37:22.750Z,96575.38
2023-03-30T08:39:51.318Z,96568.75
2023-03-30T08:43:04.816Z,96545.22
2023-03-30T08:45:42.469Z,96537.25
2023-03-30T08:48:19.764Z,96539.66
2023-03-30T08:50:59.463Z,96550.84
2023-03-30T08:53:32.849Z,96534.84
2023-03-30T08:56:10.504Z,96528.78
2023-03-30T08:58:53.810Z,96533.00
2023-03-30T09:01:30.309Z,96537.56
2023-03-30T09:04:18.700Z,96534.28
2023-03-30T09:06:54.116Z,96545.34
2023-03-30T09:09:28.813Z,96541.56
2023-03-30T09:12:05.857Z,96545.72
2023-03-30T09:14:41.576Z,96551.03
2023-03-30T09:17:17.861Z,96555.69
2023-03-30T09:19:57.123Z,96556.56
2023-03-30T09:22:36.523Z,96559.25
2023-03-30T09:25:15.454Z,96566.75
2023-03-30T09:27:58.007Z,96569.22
2023-03-30T09:30:35.537Z,96555.09
2023-03-30T09:33:15.847Z,96554.75
2023-03-30T09:35:57.787Z,96567.09
2023-03-30T09:38:27.633Z,96555.81
2023-03-30T09:41:22.081Z,96565.44
2023-03-30T09:43:52.762Z,96581.50
2023-03-30T09:46:21.453Z,96584.69
2023-03-30T09:48:51.405Z,96589.72
2023-03-30T09:51:29.202Z,96603.56
2023-03-30T09:54:04.820Z,96604.50
2023-03-30T09:56:45.305Z,96607.81
2023-03-30T09:59:32.223Z,96597.88
2023-03-30T10:02:21.782Z,96599.13
2023-03-30T10:05:05.329Z,96594.34
2023-03-30T10:07:37.882Z,96590.00
2023-03-30T10:10:17.953Z,96577.78
2023-03-30T10:12:46.890Z,96570.91
2023-03-30T10:15:22.332Z,96589.22
2023-03-30T10:17:56.301Z,96596.50
2023-03-30T10:20:29.775Z,96602.31
2023-03-30T10:23:05.202Z,96602.91
2023-03-30T10:25:35.769Z,96599.78
2023-03-30T10:28:07.077Z,96578.56
2023-03-30T10:30:36.430Z,96583.22
2023-03-30T10:33:05.421Z,96592.56
2023-03-30T10:35:39.709Z,96601.13
2023-03-30T10:38:13.721Z,96601.03
2023-03-30T10:40:47.106Z,96599.91
2023-03-30T10:43:20.969Z,96601.16
2023-03-30T10:45:52.463Z,96613.63
2023-03-30T10:48:41.943Z,96593.28
2023-03-30T10:51:21.710Z,96580.41
2023-03-30T10:54:01.557Z,96584.19
2023-03-30T10:56:41.104Z,96607.56
2023-03-30T10:59:41.161Z,96602.09
2023-03-30T11:02:49.752Z,96620.47
2023-03-30T11:05:22.858Z,96631.88
2023-03-30T11:07:57.054Z,96620.81
2023-03-30T11:10:32.986Z,96619.78
2023-03-30T11:13:07.077Z,96632.06
2023-03-30T11:15:41.950Z,96623.19
2023-03-30T11:18:21.948Z,96630.00
2023-03-30T11:21:00.736Z,96634.44
2023-03-30T11:23:42.560Z,96606.59
2023-03-30T11:26:13.524Z,96611.28
2023-03-30T11:29:02.566Z,96618.69
2023-03-30T11:32:00.104Z,96638.19
2023-03-30T11:34:38.370Z,96644.00
2023-03-30T11:37:19.122Z,96633.72
2023-03-30T11:39:57.977Z,96621.19
2023-03-30T11:42:31.461Z,96613.75
2023-03-30T11:45:05.989Z,96611.47
2023-03-30T11:48:04.321Z,96611.28
2023-03-30T11:50:51.463Z,96627.16
2023-03-30T11:53:34.098Z,96617.56
2023-03-30T11:56:09.087Z,96619.84
2023-03-30T11:58:43.357Z,96629.56
2023-03-30T12:01:35.380Z,96618.78
2023-03-30T12:04:11.195Z,96613.22
2023-03-30T12:06:43.344Z,96588.47
2023-03-30T12:09:26.402Z,96584.72
2023-03-30T12:12:06.269Z,96577.75
2023-03-30T12:15:00.458Z,96593.16
2023-03-30T12:17:42.944Z,96599.97
2023-03-30T12:20:35.907Z,96583.91
2023-03-30T12:23:20.940Z,96575.00
2023-03-30T12:26:08.720Z,96589.50
2023-03-30T12:29:15.224Z,96586.44
2023-03-30T12:32:04.832Z,96585.66
2023-03-30T12:34:37.321Z,96596.16
2023-03-30T12:37:13.367Z,96590.44
2023-03-30T12:39:49.056Z,96590.00
2023-03-30T12:42:27.547Z,96592.94
2023-03-30T12:45:30.436Z,96594.31
2023-03-30T12:48:23.130Z,96599.84
2023-03-30T12:51:08.596Z,96609.22
2023-03-30T12:54:04.479Z,96602.69
2023-03-30T12:56:40.560Z,96603.00
2023-03-30T13:00:07.315Z,96598.00
2023-03-30T13:03:06.080Z,96594.50
2023-03-30T13:05:39.896Z,96596.22
2023-03-30T13:08:21.720Z,96588.13
2023-03-30T13:10:50.556Z,96595.66
2023-03-30T13:13:52.239Z,96594.88
2023-03-30T13:17:03.664Z,96596.78
2023-03-30T13:19:49.898Z,96593.03
2023-03-30T13:22:32.797Z,96588.34
2023-03-30T13:25:28.915Z,96574.00
2023-03-30T13:28:00.166Z,96567.19
2023-03-30T13:30:30.863Z,96576.41
2023-03-30T13:33:15.793Z,96574.47
2023-03-30T13:36:00.246Z,96557.47
2023-03-30T13:38:53.032Z,96548.44
2023-03-30T13:41:41.188Z,96556.63
2023-03-30T13:44:42.589Z,96562.63
2023-03-30T13:47:57.542Z,96565.22
2023-03-30T13:50:31.282Z,96551.59
2023-03-30T13:53:04.157Z,96548.03
2023-03-30T13:55:36.527Z,96544.38
2023-03-30T13:58:13.971Z,96541.81
2023-03-30T14:00:49.791Z,96540.22
2023-03-30T14:03:34.452Z,96528.53
2023-03-30T14:06:07.649Z,96488.38
2023-03-30T14:08:39.847Z,96501.28
2023-03-30T14:11:18.230Z,96499.16
2023-03-30T14:13:52.221Z,96507.28
2023-03-30T14:16:23.927Z,96525.47
2023-03-30T14:18:53.590Z,96527.34
2023-03-30T14:21:24.373Z,96526.31
2023-03-30T14:23:55.595Z,96516.16
2023-03-30T14:26:27.582Z,96525.06
2023-03-30T14:29:00.438Z,96527.13
2023-03-30T14:31:28.933Z,96529.63
2023-03-30T14:33:57.855Z,96511.13
2023-03-30T14:36:26.649Z,96505.66
2023-03-30T14:38:57.718Z,96497.44
2023-03-30T14:41:28.753Z,96483.03
2023-03-30T14:44:03.016Z,96465.66
2023-03-30T14:46:39.922Z,96452.88
2023-03-30T14:49:09.672Z,96451.66
2023-03-30T14:51:42.047Z,96448.84
2023-03-30T14:54:17.891Z,96438.88
2023-03-30T14:56:48.714Z,96442.50
2023-03-30T14:59:20.840Z,96440.28
2023-03-30T15:01:50.348Z,96442.38
2023-03-30T15:04:21.419Z,96443.69
2023-03-30T15:06:50.222Z,96442.09
2023-03-30T15:09:20.941Z,96433.91
2023-03-30T15:11:56.645Z,96441.31
2023-03-30T15:14:29.756Z,96442.44
2023-03-30T15:16:58.856Z,96436.13
2023-03-30T15:19:32.536Z,96451.69
2023-03-30T15:22:05.804Z,96466.84
2023-03-30T15:24:38.080Z,96461.00
2023-03-30T15:27:11.760Z,96476.25
2023-03-30T15:29:45.138Z,96465.66
2023-03-30T15:32:18.275Z,96459.94
2023-03-30T15:35:06.109Z,96465.25
2023-03-30T15:37:36.046Z,96465.44
2023-03-30T15:40:27.160Z,96456.47
2023-03-30T15:43:23.014Z,96444.88
2023-03-30T15:45:57.176Z,96448.41
2023-03-30T15:48:32.262Z,96450.56
2023-03-30T15:51:09.197Z,96450.13
2023-03-30T15:53:43.740Z,96447.09
2023-03-30T15:56:22.670Z,96449.81
2023-03-30T15:58:52.569Z,96449.75
2023-03-30T16:01:23.392Z,96449.19
2023-03-30T16:03:57.774Z,96452.38
2023-03-30T16:06:26.482Z,96443.53
2023-03-30T16:08:55.515Z,96456.84
2023-03-30T16:11:24.737Z,96485.03
2023-03-30T16:13:55.264Z,96469.53
2023-03-30T16:16:25.950Z,96469.13
2023-03-30T16:18:54.692Z,96469.84
2023-03-30T16:21:24.593Z,96484.56
2023-03-30T16:23:53.081Z,96485.16
2023-03-30T16:26:21.952Z,96475.31
2023-03-30T16:28:54.030Z,96480.66
2023-03-30T16:31:25.806Z,96471.56
2023-03-30T16:33:54.391Z,96465.56
2023-03-30T16:36:25.445Z,96470.09
2023-03-30T16:38:53.795Z,96468.03
2023-03-30T16:41:24.475Z,96459.47
2023-03-30T16:43:52.922Z,96468.25
2023-03-30T16:46:22.788Z,96478.16
2023-03-30T16:48:52.968Z,96496.53
2023-03-30T16:51:21.691Z,96514.00
2023-03-30T16:53:50.369Z,96522.31
2023-03-30T16:56:22.815Z,96506.84
2023-03-30T16:58:51.579Z,96503.66
2023-03-30T17:01:22.683Z,96502.97
2023-03-30T17:03:52.990Z,96509.94
2023-03-30T17:06:22.679Z,96501.84
2023-03-30T17:08:51.953Z,96498.59
2023-03-30T17:11:20.421Z,96489.84
2023-03-30T17:13:49.234Z,96496.53
2023-03-30T17:16:17.663Z,96490.78
2023-03-30T17:18:46.195Z,96459.94
2023-03-30T17:21:17.409Z,96469.63
2023-03-30T17:23:47.845Z,96476.56
2023-03-30T17:26:17.651Z,96474.81
2023-03-30T17:28:47.474Z,96474.59
2023-03-30T17:31:19.003Z,96472.91
2023-03-30T17:33:48.872Z,96478.91
2023-03-30T17:36:21.345Z,96486.22
2023-03-30T17:38:50.838Z,96500.41
2023-03-30T17:41:22.063Z,96517.50
2023-03-30T17:43:51.596Z,96524.31
2023-03-30T17:46:21.980Z,96525.56
2023-03-30T17:48:51.550Z,96532.91
2023-03-30T17:51:21.746Z,96537.84
2023-03-30T17:53:50.320Z,96540.72
2023-03-30T17:56:19.021Z,96544.78
2023-03-30T17:58:49.067Z,96534.78
2023-03-30T18:01:17.901Z,96546.84
2023-03-30T18:03:46.742Z,96545.31
2023-03-30T18:06:15.128Z,96561.41
2023-03-30T18:08:45.337Z,96548.09
2023-03-30T18:11:13.796Z,96559.81
2023-03-30T18:13:42.428Z,96562.13
2023-03-30T18:16:13.950Z,96562.72
2023-03-30T18:18:42.816Z,96565.97
2023-03-30T18:21:12.562Z,96559.59
2023-03-30T18:23:41.511Z,96568.78
2023-03-30T18:26:14.296Z,96575.53
2023-03-30T18:28:46.530Z,96570.72
2023-03-30T18:31:15.047Z,96577.78
2023-03-30T18:33:43.745Z,96578.94
2023-03-30T18:36:13.632Z,96591.28
2023-03-30T18:38:42.321Z,96587.97
2023-03-30T18:41:13.593Z,96602.75
2023-03-30T18:43:42.015Z,96604.03
2023-03-30T18:46:13.917Z,96599.88
2023-03-30T18:48:42.766Z,96610.28
2023-03-30T18:51:13.021Z,96613.16
2023-03-30T18:53:41.832Z,96614.75
2023-03-30T18:56:13.918Z,96608.31
2023-03-30T18:58:42.934Z,96613.06
2023-03-30T19:01:13.332Z,96617.56
2023-03-30T19:03:42.862Z,96622.63
2023-03-30T19:06:16.099Z,96625.97
2023-03-30T19:08:44.585Z,96611.97
2023-03-30T19:11:19.681Z,96612.91
2023-03-30T19:13:48.413Z,96617.53
2023-03-30T19:16:18.802Z,96615.50
2023-03-30T19:18:49.422Z,96614.47
2023-03-30T19:21:19.463Z,96623.38
2023-03-30T19:23:47.958Z,96620.63
2023-03-30T19:26:17.892Z,96618.31
2023-03-30T19:28:46.300Z,96624.06
2023-03-30T19:31:16.480Z,96617.56
2023-03-30T19:33:45.409Z,96623.75
2023-03-30T19:36:14.096Z,96619.28
2023-03-30T19:38:44.251Z,96628.66
2023-03-30T19:41:12.764Z,96632.44
2023-03-30T19:43:43.533Z,96633.66
2023-03-30T19:46:12.146Z,96628.03
2023-03-30T19:48:41.876Z,96627.03
2023-03-30T19:51:10.863Z,96632.47
2023-03-30T19:53:39.752Z,96632.91
2023-03-30T19:56:11.541Z,96637.44
2023-03-30T19:58:41.360Z,96642.19
2023-03-30T20:01:10.395Z,96640.09
2023-03-30T20:03:39.089Z,96642.84
2023-03-30T20:06:11.640Z,96636.91
2023-03-30T20:08:40.593Z,96639.53
2023-03-30T20:11:10.020Z,96632.72
2023-03-30T20:13:45.756Z,96636.66
2023-03-30T20:16:20.511Z,96645.78
2023-03-30T20:18:51.786Z,96650.38
2023-03-30T20:21:21.391Z,96650.19
2023-03-30T20:23:50.305Z,96653.41
2023-03-30T20:26:20.048Z,96653.50
2023-03-30T20:28:50.180Z,96655.63
2023-03-30T20:31:19.099Z,96652.22
2023-03-30T20:33:48.178Z,96652.41
2023-03-30T20:36:17.477Z,96660.34
2023-03-30T20:38:46.985Z,96652.72
2023-03-30T20:41:17.017Z,96655.41
2023-03-30T20:43:57.020Z,96640.53
2023-03-30T20:46:36.339Z,96642.34
2023-03-30T20:49:05.897Z,96649.47
2023-03-30T20:51:35.282Z,96652.06
2023-03-30T20:54:04.133Z,96644.34
2023-03-30T20:56:33.046Z,96635.56
2023-03-30T20:59:02.318Z,96634.63
2023-03-30T21:01:34.238Z,96626.00
2023-03-30T21:04:03.824Z,96631.69
2023-03-30T21:06:34.117Z,96638.94
2023-03-30T21:09:06.075Z,96634.13
2023-03-30T21:11:38.906Z,96629.91
2023-03-30T21:14:08.711Z,96625.72
2023-03-30T21:16:42.028Z,96621.22
2023-03-30T21:19:11.764Z,96619.00
2023-03-30T21:21:41.541Z,96612.81
2023-03-30T21:24:12.043Z,96616.63
2023-03-30T21:26:40.936Z,96610.50
2023-03-30T21:29:09.457Z,96617.22
2023-03-30T21:31:39.368Z,96611.91
2023-03-30T21:34:09.516Z,96611.00
2023-03-30T21:36:39.264Z,96598.44
2023-03-30T21:39:14.360Z,96603.28
2023-03-30T21:41:43.588Z,96598.66
2023-03-30T21:44:12.593Z,96584.81
2023-03-30T21:46:42.431Z,96575.75
2023-03-30T21:49:13.636Z,96585.19
2023-03-30T21:51:42.591Z,96577.75
2023-03-30T21:54:11.465Z,96580.28
2023-03-30T21:56:40.505Z,96591.13
2023-03-30T21:59:09.706Z,96582.09
2023-03-30T22:01:39.286Z,96584.88
2023-03-30T22:04:10.070Z,96581.81
2023-03-30T22:06:39.920Z,96577.63
2023-03-30T22:09:09.853Z,96576.09
2023-03-30T22:11:38.624Z,96572.59
2023-03-30T22:14:07.281Z,96569.16
2023-03-30T22:16:37.653Z,96570.19
2023-03-30T22:19:06.688Z,96571.81
2023-03-30T22:21:37.327Z,96563.16
2023-03-30T22:24:08.571Z,96566.97
2023-03-30T22:26:37.310Z,96565.56
2023-03-30T22:29:07.696Z,96567.06
2023-03-30T22:31:36.474Z,96561.09
2023-03-30T22:34:05.686Z,96554.03
2023-03-30T22:36:35.837Z,96561.72
2023-03-30T22:39:05.222Z,96557.72
2023-03-30T22:41:33.816Z,96544.50
2023-03-30T22:44:02.769Z,96529.78
2023-03-30T22:46:31.305Z,96526.09
2023-03-30T22:49:00.215Z,96520.28
2023-03-30T22:51:28.965Z,96504.16
2023-03-30T22:54:00.243Z,96510.25
2023-03-30T22:56:30.489Z,96498.63
2023-03-30T22:59:00.825Z,96502.72
2023-03-30T23:01:32.065Z,96497.50
2023-03-30T23:04:01.246Z,96491.00
2023-03-30T23:06:31.137Z,96486.41
2023-03-30T23:09:02.789Z,96489.94
2023-03-30T23:11:32.642Z,96482.00
2023-03-30T23:14:05.258Z,96488.31
2023-03-30T23:16:35.951Z,96489.13
2023-03-30T23:19:05.588Z,96498.84
2023-03-30T23:21:35.710Z,96494.72
2023-03-30T23:24:09.178Z,96482.41
2023-03-30T23:26:38.074Z,96484.28
2023-03-30T23:29:07.418Z,96480.28
2023-03-30T23:31:36.677Z,96469.16
2023-03-30T23:34:05.709Z,96456.31
2023-03-30T23:36:35.022Z,96455.09
2023-03-30T23:39:05.507Z,96448.78
2023-03-30T23:41:33.924Z,96438.75
2023-03-30T23:44:02.335Z,96446.66
2023-03-30T23:46:32.370Z,96451.00
2023-03-30T23:49:01.166Z,96453.59
2023-03-30T23:51:29.865Z,96457.22
2023-03-30T23:54:00.481Z,96468.44
2023-03-30T23:56:32.226Z,96467.41
2023-03-30T23:59:01.042Z,96461.69
